Time;durP1;ratioP1;P1;durP2;ratioP2;P2;SDS_P1;SDS_P2;PMS_P1;PMS_P2;Temp;Humidity;BMP_temperature;BMP_pressure;BME280_temperature;BME280_humidity;BME280_pressure;Samples;Min_cycle;Max_cycle;Signal;HPM_P1;HPM_P2
2024/03/15 00:01:53;;;;;;;3.83;1.70;;;;;;;;;;5032692;28;20499;-69
2024/03/15 00:04:19;;;;;;;4.40;1.83;;;;;;;;;;5034731;28;20251;-69
2024/03/15 00:06:44;;;;;;;3.70;2.58;;;;;;;;;;5026702;28;20261;-69
2024/03/15 00:09:09;;;;;;;11.83;2.73;;;;;;;;;;5026807;28;20372;-69
2024/03/15 00:11:34;;;;;;;8.02;3.35;;;;;;;;;;5031132;28;20263;-69
2024/03/15 00:13:59;;;;;;;7.20;3.33;;;;;;;;;;5030483;28;20022;-69
2024/03/15 00:16:25;;;;;;;4.93;2.40;;;;;;;;;;5027507;28;20021;-68
2024/03/15 00:18:50;;;;;;;4.97;2.85;;;;;;;;;;5027729;28;20038;-68
2024/03/15 00:21:16;;;;;;;4.00;2.33;;;;;;;;;;5026224;28;20025;-69
2024/03/15 00:23:42;;;;;;;4.50;2.72;;;;;;;;;;5023889;28;20367;-69
2024/03/15 00:26:08;;;;;;;5.10;2.50;;;;;;;;;;5028760;28;20105;-70
2024/03/15 00:28:33;;;;;;;4.93;2.97;;;;;;;;;;5029459;28;20431;-69
2024/03/15 00:31:00;;;;;;;5.15;2.40;;;;;;;;;;5030269;28;20026;-69
2024/03/15 00:33:25;;;;;;;4.28;2.58;;;;;;;;;;5035784;28;20014;-69
2024/03/15 00:35:50;;;;;;;8.77;2.93;;;;;;;;;;5023086;28;20080;-69
2024/03/15 00:38:15;;;;;;;6.43;3.13;;;;;;;;;;5032492;28;20819;-69
2024/03/15 00:40:41;;;;;;;3.55;2.10;;;;;;;;;;5027143;28;20095;-69
2024/03/15 00:43:06;;;;;;;4.38;2.33;;;;;;;;;;5023177;28;20122;-69
2024/03/15 00:45:31;;;;;;;5.20;2.43;;;;;;;;;;5029534;28;20561;-68
2024/03/15 00:47:56;;;;;;;6.53;1.97;;;;;;;;;;5023577;28;20280;-69
2024/03/15 00:50:22;;;;;;;4.88;2.72;;;;;;;;;;5033252;28;20290;-69
2024/03/15 00:52:48;;;;;;;10.63;2.35;;;;;;;;;;5038222;28;20020;-69
2024/03/15 00:55:13;;;;;;;13.57;2.63;;;;;;;;;;5029959;28;20014;-69
2024/03/15 00:57:38;;;;;;;3.97;2.30;;;;;;;;;;5028828;28;20048;-69
2024/03/15 01:00:04;;;;;;;6.70;2.83;;;;;;;;;;5031653;28;20037;-69
2024/03/15 01:02:29;;;;;;;5.30;1.90;;;;;;;;;;5029219;28;20033;-69
2024/03/15 01:04:54;;;;;;;5.80;2.67;;;;;;;;;;5027130;28;20079;-69
2024/03/15 01:07:20;;;;;;;5.63;2.60;;;;;;;;;;5023057;28;20510;-69
2024/03/15 01:09:45;;;;;;;3.25;2.25;;;;;;;;;;5033254;28;20041;-69
2024/03/15 01:12:10;;;;;;;3.65;1.85;;;;;;;;;;5036276;28;20107;-69
2024/03/15 01:14:35;;;;;;;6.90;2.45;;;;;;;;;;5030155;28;20033;-69
2024/03/15 01:17:00;;;;;;;4.53;2.07;;;;;;;;;;5028444;28;20025;-69
2024/03/15 01:19:26;;;;;;;5.10;1.95;;;;;;;;;;5028136;28;20034;-69
2024/03/15 01:21:51;;;;;;;1.60;1.38;;;;;;;;;;5027345;28;20059;-68
2024/03/15 01:24:17;;;;;;;6.07;2.77;;;;;;;;;;5040915;28;20072;-69
2024/03/15 01:26:43;;;;;;;5.38;2.25;;;;;;;;;;5029934;28;20256;-69
2024/03/15 01:29:08;;;;;;;6.20;1.77;;;;;;;;;;5018812;28;20061;-69
2024/03/15 01:31:33;;;;;;;6.03;2.33;;;;;;;;;;5026784;28;20055;-69
2024/03/15 01:33:59;;;;;;;6.22;2.15;;;;;;;;;;5032271;28;20101;-69
2024/03/15 01:36:24;;;;;;;4.43;2.00;;;;;;;;;;5031016;28;20476;-69
2024/03/15 01:38:49;;;;;;;2.58;1.70;;;;;;;;;;5031897;28;20255;-69
2024/03/15 01:41:14;;;;;;;10.07;2.50;;;;;;;;;;5023788;28;20083;-69
2024/03/15 01:43:47;;;;;;;8.67;1.60;;;;;;;;;;5039686;28;20646;-69
2024/03/15 01:46:12;;;;;;;10.70;2.53;;;;;;;;;;5027566;28;20260;-69
2024/03/15 01:48:37;;;;;;;10.75;2.42;;;;;;;;;;5025885;28;20021;-69
2024/03/15 01:51:03;;;;;;;7.67;2.13;;;;;;;;;;5032593;28;20030;-69
2024/03/15 01:53:28;;;;;;;9.48;2.65;;;;;;;;;;5021599;28;20269;-69
2024/03/15 01:55:53;;;;;;;8.57;2.60;;;;;;;;;;5029194;28;20024;-68
2024/03/15 01:58:19;;;;;;;5.53;2.22;;;;;;;;;;5025603;28;20384;-69
2024/03/15 02:00:46;;;;;;;4.57;2.57;;;;;;;;;;5028831;28;20047;-69
2024/03/15 02:03:11;;;;;;;6.45;2.33;;;;;;;;;;5025457;28;20268;-69
2024/03/15 02:05:36;;;;;;;6.85;2.67;;;;;;;;;;5026456;28;20048;-69
2024/03/15 02:08:03;;;;;;;8.63;2.42;;;;;;;;;;5027083;28;20121;-69
2024/03/15 02:10:28;;;;;;;6.38;2.65;;;;;;;;;;5034981;28;20150;-69
2024/03/15 02:12:53;;;;;;;5.00;2.27;;;;;;;;;;5028357;28;20105;-68
2024/03/15 02:15:18;;;;;;;6.68;2.60;;;;;;;;;;5038990;28;20260;-69
2024/03/15 02:23:49;;;;;;;5.95;2.60;;;;;;;;;;5025918;28;20109;-69
2024/03/15 02:26:14;;;;;;;3.88;2.13;;;;;;;;;;5029771;28;20200;-69
2024/03/15 02:28:41;;;;;;;5.20;2.03;;;;;;;;;;5038199;28;20059;-68
2024/03/15 02:31:06;;;;;;;5.47;2.50;;;;;;;;;;5028821;28;20267;-69
2024/03/15 02:33:31;;;;;;;6.37;2.60;;;;;;;;;;5027344;28;20033;-69
2024/03/15 02:35:56;;;;;;;11.00;2.93;;;;;;;;;;5033657;28;20632;-69
2024/03/15 02:38:26;;;;;;;6.82;2.83;;;;;;;;;;5027795;28;20363;-69
2024/03/15 02:40:52;;;;;;;10.65;3.33;;;;;;;;;;5034955;28;20064;-69
2024/03/15 02:43:17;;;;;;;8.05;2.47;;;;;;;;;;5028526;28;20040;-69
2024/03/15 02:45:42;;;;;;;2.85;1.55;;;;;;;;;;5034895;28;20049;-69
2024/03/15 02:48:07;;;;;;;3.87;2.27;;;;;;;;;;5028768;28;20107;-69
2024/03/15 02:50:33;;;;;;;5.93;2.70;;;;;;;;;;5023957;28;20283;-69
2024/03/15 02:52:59;;;;;;;7.07;1.90;;;;;;;;;;5021162;28;20356;-69
2024/03/15 02:55:26;;;;;;;5.75;1.85;;;;;;;;;;5034702;28;20013;-69
2024/03/15 02:57:51;;;;;;;7.20;2.50;;;;;;;;;;5026012;28;20021;-69
2024/03/15 03:00:16;;;;;;;7.87;2.47;;;;;;;;;;5030734;28;20404;-69
2024/03/15 03:02:41;;;;;;;1.95;1.40;;;;;;;;;;5031064;28;20273;-68
2024/03/15 03:05:08;;;;;;;10.05;2.90;;;;;;;;;;5027877;28;20029;-69
2024/03/15 03:07:33;;;;;;;7.85;2.92;;;;;;;;;;5038163;28;20082;-68
2024/03/15 03:09:59;;;;;;;7.10;2.23;;;;;;;;;;5030661;28;20105;-69
2024/03/15 03:12:24;;;;;;;9.67;4.43;;;;;;;;;;5026886;28;20298;-69
2024/03/15 03:14:49;;;;;;;4.87;3.20;;;;;;;;;;5019776;28;20256;-69
2024/03/15 03:17:16;;;;;;;7.22;2.22;;;;;;;;;;5025672;28;20343;-69
2024/03/15 03:19:41;;;;;;;6.05;2.15;;;;;;;;;;5026694;28;20029;-69
2024/03/15 03:22:06;;;;;;;4.32;1.33;;;;;;;;;;5031743;28;20485;-69
2024/03/15 03:24:31;;;;;;;4.23;2.37;;;;;;;;;;5028467;28;20113;-68
2024/03/15 03:26:56;;;;;;;4.23;2.30;;;;;;;;;;5024119;28;20253;-69
2024/03/15 03:29:22;;;;;;;4.73;2.53;;;;;;;;;;5028007;28;20643;-70
2024/03/15 03:31:47;;;;;;;5.50;2.22;;;;;;;;;;5029836;28;20271;-68
2024/03/15 03:34:13;;;;;;;10.57;3.25;;;;;;;;;;5029059;28;20017;-68
2024/03/15 03:36:38;;;;;;;12.67;2.50;;;;;;;;;;5034718;28;20377;-69
2024/03/15 03:39:04;;;;;;;5.45;2.45;;;;;;;;;;5037147;28;20268;-68
2024/03/15 03:41:30;;;;;;;5.45;2.22;;;;;;;;;;5030350;28;20090;-68
2024/03/15 03:43:55;;;;;;;8.23;1.52;;;;;;;;;;5028359;28;20026;-69
2024/03/15 03:46:21;;;;;;;8.60;2.33;;;;;;;;;;5029982;28;20104;-68
2024/03/15 03:48:46;;;;;;;2.65;1.23;;;;;;;;;;5032726;28;20291;-68
2024/03/15 03:51:11;;;;;;;2.78;1.90;;;;;;;;;;5027326;28;20087;-69
2024/03/15 03:53:37;;;;;;;7.53;2.30;;;;;;;;;;5024921;28;20061;-69
2024/03/15 03:56:02;;;;;;;7.33;2.70;;;;;;;;;;5033054;28;20755;-69
2024/03/15 03:58:27;;;;;;;3.25;1.73;;;;;;;;;;5034908;28;20259;-69
2024/03/15 04:00:52;;;;;;;3.80;1.73;;;;;;;;;;5022117;28;20133;-68
2024/03/15 04:03:17;;;;;;;5.20;2.53;;;;;;;;;;5035845;28;20281;-68
2024/03/15 04:05:43;;;;;;;6.25;2.10;;;;;;;;;;5027473;28;20682;-69
2024/03/15 04:08:08;;;;;;;4.88;1.48;;;;;;;;;;5032153;28;20025;-69
2024/03/15 04:10:36;;;;;;;3.65;1.67;;;;;;;;;;5038886;28;20029;-69
2024/03/15 04:13:02;;;;;;;3.50;2.22;;;;;;;;;;5032940;28;20076;-69
2024/03/15 04:15:27;;;;;;;4.53;1.75;;;;;;;;;;5031195;28;20126;-69
2024/03/15 04:17:52;;;;;;;6.35;1.88;;;;;;;;;;5025062;28;20029;-69
2024/03/15 04:20:17;;;;;;;6.43;2.10;;;;;;;;;;5030622;28;20036;-69
2024/03/15 04:22:43;;;;;;;4.27;1.43;;;;;;;;;;5024471;28;20699;-69
2024/03/15 04:25:09;;;;;;;2.63;1.65;;;;;;;;;;5028353;28;20252;-68
2024/03/15 04:27:35;;;;;;;11.77;2.63;;;;;;;;;;5028898;28;20039;-68
2024/03/15 04:30:13;;;;;;;10.00;2.13;;;;;;;;;;5032453;28;20033;-69
2024/03/15 04:32:38;;;;;;;5.00;2.22;;;;;;;;;;5035890;28;20167;-68
2024/03/15 04:35:06;;;;;;;3.25;2.05;;;;;;;;;;5028085;28;20120;-69
2024/03/15 04:37:31;;;;;;;11.38;2.45;;;;;;;;;;5029115;28;20052;-68
2024/03/15 04:39:56;;;;;;;2.70;1.80;;;;;;;;;;5030640;28;20041;-68
2024/03/15 04:42:21;;;;;;;5.75;1.58;;;;;;;;;;5034496;28;20758;-69
2024/03/15 04:44:47;;;;;;;6.90;2.65;;;;;;;;;;5031115;28;20017;-69
2024/03/15 04:47:13;;;;;;;2.28;1.48;;;;;;;;;;5027246;28;20025;-69
2024/03/15 04:49:39;;;;;;;7.47;1.73;;;;;;;;;;5036328;28;20021;-68
2024/03/15 04:52:04;;;;;;;4.65;1.80;;;;;;;;;;5030689;28;20298;-69
2024/03/15 04:54:31;;;;;;;4.47;2.00;;;;;;;;;;5029196;28;20103;-68
2024/03/15 04:56:56;;;;;;;5.15;2.28;;;;;;;;;;5029921;28;20678;-69
2024/03/15 04:59:21;;;;;;;4.03;1.53;;;;;;;;;;5035553;28;20074;-69
2024/03/15 05:01:46;;;;;;;5.80;1.57;;;;;;;;;;5030611;28;20256;-69
2024/03/15 05:04:11;;;;;;;8.57;1.85;;;;;;;;;;5031798;28;20727;-69
2024/03/15 05:06:37;;;;;;;5.47;1.10;;;;;;;;;;5034890;28;20123;-69
2024/03/15 05:09:04;;;;;;;3.60;1.45;;;;;;;;;;5028520;28;20779;-69
2024/03/15 05:11:29;;;;;;;7.00;2.10;;;;;;;;;;5033701;28;20021;-69
2024/03/15 05:13:54;;;;;;;11.83;2.17;;;;;;;;;;5037744;28;20021;-69
2024/03/15 05:16:19;;;;;;;12.25;2.40;;;;;;;;;;5034784;28;20278;-69
2024/03/15 05:18:45;;;;;;;9.73;2.07;;;;;;;;;;5024791;28;20044;-69
2024/03/15 05:21:10;;;;;;;3.90;1.70;;;;;;;;;;5027710;28;20348;-68
2024/03/15 05:23:38;;;;;;;6.13;2.75;;;;;;;;;;5029429;28;20318;-69
2024/03/15 05:26:05;;;;;;;8.30;2.75;;;;;;;;;;5029569;28;20009;-69
2024/03/15 05:28:30;;;;;;;7.43;1.85;;;;;;;;;;5030856;28;20047;-69
2024/03/15 05:30:56;;;;;;;4.20;1.90;;;;;;;;;;5029256;28;20021;-69
2024/03/15 05:33:21;;;;;;;6.57;1.85;;;;;;;;;;5028664;28;20422;-69
2024/03/15 05:35:46;;;;;;;5.03;2.17;;;;;;;;;;5030289;28;20025;-69
2024/03/15 05:38:11;;;;;;;6.67;3.07;;;;;;;;;;5028640;28;20021;-69
2024/03/15 05:40:36;;;;;;;10.88;2.38;;;;;;;;;;5035106;28;20289;-68
2024/03/15 05:43:02;;;;;;;4.40;2.13;;;;;;;;;;5023851;28;20030;-68
2024/03/15 05:45:27;;;;;;;5.03;2.13;;;;;;;;;;5031421;28;20271;-68
2024/03/15 05:47:52;;;;;;;4.25;2.20;;;;;;;;;;5030227;28;20025;-69
2024/03/15 05:50:17;;;;;;;12.20;3.07;;;;;;;;;;5030899;28;20180;-68
2024/03/15 05:52:42;;;;;;;4.50;1.77;;;;;;;;;;5026463;28;20276;-68
2024/03/15 05:55:08;;;;;;;6.33;2.30;;;;;;;;;;5027056;28;20279;-69
2024/03/15 05:57:34;;;;;;;5.95;2.80;;;;;;;;;;5023528;28;20341;-68
2024/03/15 06:00:09;;;;;;;6.85;3.10;;;;;;;;;;5026801;28;20674;-69
2024/03/15 06:02:34;;;;;;;6.30;2.40;;;;;;;;;;5023577;28;20021;-68
2024/03/15 06:04:59;;;;;;;6.37;2.50;;;;;;;;;;5025311;28;20014;-69
2024/03/15 06:07:24;;;;;;;7.10;2.55;;;;;;;;;;5014935;28;20280;-69
2024/03/15 06:09:50;;;;;;;5.67;2.33;;;;;;;;;;5022956;28;20388;-69
2024/03/15 06:12:16;;;;;;;7.15;2.10;;;;;;;;;;5020124;28;20311;-68
2024/03/15 06:14:41;;;;;;;5.05;2.72;;;;;;;;;;5026707;28;20014;-69
2024/03/15 06:17:06;;;;;;;6.37;2.17;;;;;;;;;;5028385;28;20022;-69
2024/03/15 06:19:33;;;;;;;10.45;2.42;;;;;;;;;;5028222;28;20350;-70
2024/03/15 06:21:58;;;;;;;7.72;2.40;;;;;;;;;;5015356;28;20032;-69
2024/03/15 06:24:24;;;;;;;5.03;2.30;;;;;;;;;;5025388;28;20025;-69
2024/03/15 06:26:52;;;;;;;9.75;1.90;;;;;;;;;;5024211;28;20033;-68
2024/03/15 06:29:18;;;;;;;5.85;2.75;;;;;;;;;;5016673;28;20025;-69
2024/03/15 06:31:43;;;;;;;8.63;2.72;;;;;;;;;;5020287;28;20549;-69
2024/03/15 06:34:09;;;;;;;9.77;2.58;;;;;;;;;;5023217;28;20022;-68
2024/03/15 06:36:41;;;;;;;5.30;2.65;;;;;;;;;;5024829;28;20014;-69
2024/03/15 06:39:22;;;;;;;9.07;2.10;;;;;;;;;;5022542;28;20091;-69
2024/03/15 06:41:51;;;;;;;2.88;1.38;;;;;;;;;;5021766;28;20033;-68
2024/03/15 06:47:04;;;;;;;6.27;2.33;;;;;;;;;;5019168;28;20033;-69
2024/03/15 06:49:47;;;;;;;12.90;2.28;;;;;;;;;;5027456;28;20691;-69
2024/03/15 06:54:56;;;;;;;5.68;2.67;;;;;;;;;;5024737;28;20518;-69
2024/03/15 06:57:22;;;;;;;7.05;2.40;;;;;;;;;;5022100;28;20053;-69
2024/03/15 06:59:48;;;;;;;12.40;2.95;;;;;;;;;;5025869;28;20100;-69
2024/03/15 07:02:13;;;;;;;3.40;2.10;;;;;;;;;;5021534;28;20052;-67
2024/03/15 07:04:39;;;;;;;3.28;1.52;;;;;;;;;;5026593;28;20021;-67
2024/03/15 07:07:04;;;;;;;2.10;1.40;;;;;;;;;;5025387;28;20029;-67
2024/03/15 07:09:29;;;;;;;12.95;2.75;;;;;;;;;;5028743;28;20367;-69
2024/03/15 07:11:54;;;;;;;11.53;4.53;;;;;;;;;;5023749;28;20397;-69
2024/03/15 07:14:19;;;;;;;4.67;1.87;;;;;;;;;;5027053;28;20293;-67
2024/03/15 07:16:45;;;;;;;9.37;2.63;;;;;;;;;;5025329;28;20612;-67
2024/03/15 07:19:13;;;;;;;8.82;3.03;;;;;;;;;;5024986;28;20291;-67
2024/03/15 07:21:38;;;;;;;11.48;2.83;;;;;;;;;;5026807;28;20025;-67
2024/03/15 07:24:05;;;;;;;6.68;2.85;;;;;;;;;;5023650;28;20032;-67
2024/03/15 07:26:31;;;;;;;7.95;2.80;;;;;;;;;;5024174;28;20029;-69
2024/03/15 07:28:57;;;;;;;4.68;1.50;;;;;;;;;;5034792;28;20053;-69
2024/03/15 07:31:23;;;;;;;4.93;2.70;;;;;;;;;;5025707;28;20021;-69
2024/03/15 07:33:48;;;;;;;8.20;2.63;;;;;;;;;;5027527;28;20017;-69
2024/03/15 07:36:13;;;;;;;6.07;3.23;;;;;;;;;;5026015;28;20033;-69
2024/03/15 07:38:40;;;;;;;14.05;2.95;;;;;;;;;;5025147;28;20268;-69
2024/03/15 07:41:08;;;;;;;4.40;1.50;;;;;;;;;;5027023;28;20017;-67
2024/03/15 07:43:33;;;;;;;4.72;2.13;;;;;;;;;;5029902;28;20022;-67
2024/03/15 07:45:58;;;;;;;7.38;2.75;;;;;;;;;;5020546;28;20022;-67
2024/03/15 07:48:24;;;;;;;7.77;2.70;;;;;;;;;;5027749;28;20480;-67
2024/03/15 07:50:49;;;;;;;9.13;2.85;;;;;;;;;;5025893;28;20287;-67
2024/03/15 07:53:15;;;;;;;4.97;2.07;;;;;;;;;;5024370;28;20089;-67
2024/03/15 07:55:40;;;;;;;9.88;3.30;;;;;;;;;;5027324;28;20021;-69
2024/03/15 07:58:05;;;;;;;9.70;2.53;;;;;;;;;;5024837;28;20463;-70
2024/03/15 08:00:31;;;;;;;11.00;3.72;;;;;;;;;;5026494;28;20021;-69
2024/03/15 08:02:56;;;;;;;10.35;3.22;;;;;;;;;;5029561;28;20118;-67
2024/03/15 08:05:23;;;;;;;9.13;3.30;;;;;;;;;;5025859;28;20041;-68
2024/03/15 08:07:49;;;;;;;11.77;2.88;;;;;;;;;;5021044;28;20026;-68
2024/03/15 08:10:14;;;;;;;10.07;3.25;;;;;;;;;;5030141;28;20495;-67
2024/03/15 08:12:39;;;;;;;12.18;3.40;;;;;;;;;;5032811;28;20014;-68
2024/03/15 08:15:05;;;;;;;10.90;5.13;;;;;;;;;;5035821;28;20144;-68
2024/03/15 08:17:30;;;;;;;8.65;3.10;;;;;;;;;;5030018;28;20105;-68
2024/03/15 08:19:56;;;;;;;11.82;2.85;;;;;;;;;;5035783;28;20532;-68
2024/03/15 08:22:21;;;;;;;8.60;2.83;;;;;;;;;;5040799;28;20018;-68
2024/03/15 08:24:46;;;;;;;9.50;3.40;;;;;;;;;;5028026;28;20254;-68
2024/03/15 08:27:12;;;;;;;8.07;2.47;;;;;;;;;;5027651;28;20028;-67
2024/03/15 08:29:37;;;;;;;9.80;3.38;;;;;;;;;;5027491;28;20364;-67
2024/03/15 08:32:03;;;;;;;9.23;2.92;;;;;;;;;;5023652;28;20017;-68
2024/03/15 08:34:29;;;;;;;17.13;3.22;;;;;;;;;;5032586;28;20025;-68
2024/03/15 08:36:56;;;;;;;9.93;3.40;;;;;;;;;;5031808;28;20096;-67
2024/03/15 08:39:24;;;;;;;10.45;2.47;;;;;;;;;;5030333;28;20030;-68
2024/03/15 08:41:50;;;;;;;5.88;2.28;;;;;;;;;;5024245;28;20057;-67
2024/03/15 08:44:15;;;;;;;10.00;2.72;;;;;;;;;;5029434;28;20150;-67
2024/03/15 08:46:40;;;;;;;7.85;2.65;;;;;;;;;;5033069;28;20013;-68
2024/03/15 08:49:05;;;;;;;7.00;2.95;;;;;;;;;;5023290;28;20520;-68
2024/03/15 08:51:31;;;;;;;13.70;3.90;;;;;;;;;;5027466;28;20017;-67
2024/03/15 08:53:57;;;;;;;4.30;2.50;;;;;;;;;;5028245;28;20841;-68
2024/03/15 08:56:24;;;;;;;5.20;2.30;;;;;;;;;;5024446;28;20026;-68
2024/03/15 08:58:49;;;;;;;9.43;2.83;;;;;;;;;;5022703;28;20029;-69
2024/03/15 09:01:16;;;;;;;6.50;2.97;;;;;;;;;;5023909;28;20036;-69
2024/03/15 09:03:41;;;;;;;6.75;2.75;;;;;;;;;;5018556;28;20029;-68
2024/03/15 09:06:06;;;;;;;13.70;2.38;;;;;;;;;;5027387;28;20033;-69
2024/03/15 09:08:35;;;;;;;6.20;2.55;;;;;;;;;;5029320;28;20033;-69
2024/03/15 09:11:01;;;;;;;5.78;2.13;;;;;;;;;;5039149;28;20555;-68
2024/03/15 09:13:26;;;;;;;14.75;3.00;;;;;;;;;;5026313;28;20044;-68
2024/03/15 09:15:55;;;;;;;11.68;2.90;;;;;;;;;;5024919;28;20030;-68
2024/03/15 09:18:21;;;;;;;9.05;2.45;;;;;;;;;;5031356;28;20477;-68
2024/03/15 09:20:47;;;;;;;9.70;2.70;;;;;;;;;;5028602;28;20489;-68
2024/03/15 09:23:12;;;;;;;12.63;3.08;;;;;;;;;;5031231;28;20031;-68
2024/03/15 09:25:37;;;;;;;5.17;2.77;;;;;;;;;;5034291;28;20114;-68
2024/03/15 09:28:04;;;;;;;13.82;2.70;;;;;;;;;;5025761;28;20316;-69
2024/03/15 09:33:13;;;;;;;14.50;2.58;;;;;;;;;;5026956;28;20028;-69
2024/03/15 09:35:40;;;;;;;2.58;1.33;;;;;;;;;;5025802;28;20018;-68
2024/03/15 09:38:06;;;;;;;2.33;1.42;;;;;;;;;;5027012;28;20036;-68
2024/03/15 09:40:31;;;;;;;5.28;2.00;;;;;;;;;;5028212;28;20025;-68
2024/03/15 09:42:56;;;;;;;4.50;1.60;;;;;;;;;;5030888;28;20029;-68
2024/03/15 09:45:22;;;;;;;1.63;1.23;;;;;;;;;;5027043;28;20038;-68
2024/03/15 09:47:50;;;;;;;3.33;1.38;;;;;;;;;;5029555;28;20288;-69
2024/03/15 09:50:16;;;;;;;9.35;2.80;;;;;;;;;;5022745;28;20029;-68
2024/03/15 09:52:42;;;;;;;10.35;2.00;;;;;;;;;;5023883;28;20013;-68
2024/03/15 09:55:13;;;;;;;8.45;2.95;;;;;;;;;;5026742;28;20017;-68
2024/03/15 09:57:39;;;;;;;5.35;1.50;;;;;;;;;;5029162;28;20483;-68
2024/03/15 10:00:05;;;;;;;4.65;1.85;;;;;;;;;;5023807;28;20026;-68
2024/03/15 10:02:31;;;;;;;7.38;1.48;;;;;;;;;;5022118;28;20096;-68
2024/03/15 10:04:56;;;;;;;4.53;2.42;;;;;;;;;;5027443;28;20137;-68
2024/03/15 10:07:22;;;;;;;4.85;1.90;;;;;;;;;;5025339;28;20014;-68
2024/03/15 10:09:48;;;;;;;8.05;2.08;;;;;;;;;;5025396;28;20497;-68
2024/03/15 10:12:13;;;;;;;4.10;1.58;;;;;;;;;;5029125;28;20024;-68
2024/03/15 10:14:38;;;;;;;3.75;1.35;;;;;;;;;;5022276;28;20014;-68
2024/03/15 10:17:04;;;;;;;4.53;1.90;;;;;;;;;;5029045;28;20547;-68
2024/03/15 10:19:30;;;;;;;2.70;1.42;;;;;;;;;;5026890;28;20268;-69
2024/03/15 10:21:57;;;;;;;5.50;1.80;;;;;;;;;;5030999;28;20416;-68
2024/03/15 10:24:24;;;;;;;9.88;1.90;;;;;;;;;;5020226;28;20092;-68
2024/03/15 10:26:49;;;;;;;6.57;2.35;;;;;;;;;;5027116;28;20021;-68
2024/03/15 10:29:14;;;;;;;3.07;1.00;;;;;;;;;;5023191;28;20052;-68
2024/03/15 10:31:41;;;;;;;3.63;0.83;;;;;;;;;;5021842;28;21035;-68
2024/03/15 10:34:10;;;;;;;5.32;1.63;;;;;;;;;;5022017;28;20407;-68
2024/03/15 10:36:36;;;;;;;4.65;1.20;;;;;;;;;;5032267;28;20028;-68
2024/03/15 10:39:01;;;;;;;1.13;0.60;;;;;;;;;;5030666;28;20036;-69
2024/03/15 10:41:27;;;;;;;0.87;0.60;;;;;;;;;;5032616;28;20267;-68
2024/03/15 10:43:53;;;;;;;5.45;1.27;;;;;;;;;;5023272;28;20283;-68
2024/03/15 10:46:18;;;;;;;3.28;1.40;;;;;;;;;;5027276;28;20047;-68
2024/03/15 10:48:44;;;;;;;3.83;1.27;;;;;;;;;;5027479;28;20532;-69
2024/03/15 10:51:10;;;;;;;0.82;0.70;;;;;;;;;;5032088;28;20448;-68
2024/03/15 10:53:35;;;;;;;3.83;1.00;;;;;;;;;;5027626;28;20093;-68
2024/03/15 10:56:00;;;;;;;1.93;0.90;;;;;;;;;;5022823;28;20096;-68
2024/03/15 10:58:25;;;;;;;1.88;0.63;;;;;;;;;;5027585;28;20260;-68
2024/03/15 11:00:51;;;;;;;2.57;1.10;;;;;;;;;;5025124;28;20025;-68
2024/03/15 11:03:25;;;;;;;1.88;1.00;;;;;;;;;;5029306;28;20751;-68
2024/03/15 11:05:50;;;;;;;1.33;0.60;;;;;;;;;;5026568;28;20028;-68
2024/03/15 11:08:16;;;;;;;1.77;0.95;;;;;;;;;;5026076;28;20021;-69
2024/03/15 11:10:54;;;;;;;5.88;0.98;;;;;;;;;;5027052;28;20481;-68
2024/03/15 11:13:20;;;;;;;1.08;0.75;;;;;;;;;;5025476;28;20025;-68
2024/03/15 11:15:46;;;;;;;2.58;1.10;;;;;;;;;;5035022;28;20403;-68
2024/03/15 11:18:13;;;;;;;0.87;0.60;;;;;;;;;;5027741;28;20018;-69
2024/03/15 11:20:45;;;;;;;0.82;0.55;;;;;;;;;;5028903;28;20268;-69
2024/03/15 11:23:14;;;;;;;1.45;0.73;;;;;;;;;;5022872;28;20111;-68
2024/03/15 11:25:42;;;;;;;1.70;0.65;;;;;;;;;;5032994;28;20028;-68
2024/03/15 11:28:08;;;;;;;0.38;0.35;;;;;;;;;;5034968;28;20096;-68
2024/03/15 11:30:33;;;;;;;1.75;0.70;;;;;;;;;;5029402;28;20013;-68
2024/03/15 11:32:58;;;;;;;2.92;0.82;;;;;;;;;;5024718;28;20033;-68
2024/03/15 11:35:24;;;;;;;2.72;0.70;;;;;;;;;;5024573;28;20021;-68
2024/03/15 11:37:55;;;;;;;4.90;2.17;;;;;;;;;;5025603;28;20083;-68
2024/03/15 11:40:20;;;;;;;11.82;2.30;;;;;;;;;;5028538;28;20028;-68
2024/03/15 11:42:45;;;;;;;4.28;1.10;;;;;;;;;;5028074;28;20029;-70
2024/03/15 11:45:14;;;;;;;3.60;1.00;;;;;;;;;;5022342;28;20025;-70
2024/03/15 11:47:39;;;;;;;4.20;1.23;;;;;;;;;;5028878;28;21483;-70
2024/03/15 11:50:12;;;;;;;3.50;1.20;;;;;;;;;;5032252;28;20037;-70
2024/03/15 11:52:37;;;;;;;3.10;0.90;;;;;;;;;;5034518;28;20104;-70
2024/03/15 11:55:03;;;;;;;4.97;1.23;;;;;;;;;;5029579;28;20208;-70
2024/03/15 11:57:29;;;;;;;5.28;1.10;;;;;;;;;;5030120;28;20100;-69
2024/03/15 11:59:54;;;;;;;2.15;0.90;;;;;;;;;;5035650;28;20100;-70
2024/03/15 12:02:19;;;;;;;6.13;1.00;;;;;;;;;;5028691;28;20041;-70
2024/03/15 12:04:45;;;;;;;1.90;1.02;;;;;;;;;;5029400;28;20998;-71
2024/03/15 12:07:10;;;;;;;1.88;0.80;;;;;;;;;;5021021;28;20531;-70
2024/03/15 12:09:39;;;;;;;6.13;1.08;;;;;;;;;;5033000;28;20515;-70
2024/03/15 12:12:04;;;;;;;0.77;0.45;;;;;;;;;;5023633;28;20399;-70
2024/03/15 12:14:29;;;;;;;2.63;1.30;;;;;;;;;;5032370;28;20101;-70
2024/03/15 12:16:54;;;;;;;0.73;0.73;;;;;;;;;;5026587;28;20026;-70
2024/03/15 12:19:20;;;;;;;3.70;1.30;;;;;;;;;;5027531;28;20017;-70
2024/03/15 12:21:45;;;;;;;1.23;0.80;;;;;;;;;;5026968;28;20361;-70
2024/03/15 12:24:11;;;;;;;1.23;0.82;;;;;;;;;;5032668;28;20025;-70
2024/03/15 12:26:36;;;;;;;1.55;0.85;;;;;;;;;;5030013;28;20032;-69
2024/03/15 12:29:01;;;;;;;0.82;0.60;;;;;;;;;;5024589;28;20357;-71
2024/03/15 12:31:27;;;;;;;1.10;0.60;;;;;;;;;;5035962;28;20107;-71
2024/03/15 12:33:52;;;;;;;9.07;1.05;;;;;;;;;;5028264;28;20024;-70
2024/03/15 12:36:17;;;;;;;2.70;0.57;;;;;;;;;;5027524;28;20025;-70
2024/03/15 12:38:43;;;;;;;2.25;0.65;;;;;;;;;;5030910;28;20021;-70
2024/03/15 12:41:09;;;;;;;1.02;0.38;;;;;;;;;;5025845;28;20033;-71
2024/03/15 12:43:34;;;;;;;3.40;0.60;;;;;;;;;;5032992;28;20029;-70
2024/03/15 12:45:59;;;;;;;1.00;0.60;;;;;;;;;;5029192;28;20041;-71
2024/03/15 12:48:24;;;;;;;0.93;0.60;;;;;;;;;;5027254;28;20024;-70
2024/03/15 12:50:50;;;;;;;4.33;0.90;;;;;;;;;;5028585;28;20359;-71
2024/03/15 12:53:18;;;;;;;4.32;1.05;;;;;;;;;;5032910;28;20264;-71
2024/03/15 12:55:44;;;;;;;3.22;0.98;;;;;;;;;;5023862;28;20017;-71
2024/03/15 12:58:09;;;;;;;0.75;0.40;;;;;;;;;;5032704;28;20025;-71
2024/03/15 13:00:34;;;;;;;4.55;0.80;;;;;;;;;;5025612;28;20025;-70
2024/03/15 13:02:59;;;;;;;2.70;0.80;;;;;;;;;;5026285;28;20396;-70
2024/03/15 13:05:25;;;;;;;0.77;0.37;;;;;;;;;;5027430;28;20025;-70
2024/03/15 13:07:51;;;;;;;4.43;1.20;;;;;;;;;;5034416;28;20384;-71
2024/03/15 13:10:17;;;;;;;5.43;1.13;;;;;;;;;;5032314;28;20056;-70
2024/03/15 13:12:48;;;;;;;2.20;1.02;;;;;;;;;;5029162;28;20040;-71
2024/03/15 13:15:17;;;;;;;7.38;1.05;;;;;;;;;;5024684;28;20024;-70
2024/03/15 13:17:43;;;;;;;7.55;0.80;;;;;;;;;;5025716;28;20072;-70
2024/03/15 13:20:15;;;;;;;6.43;1.30;;;;;;;;;;5027474;28;20372;-70
2024/03/15 13:22:40;;;;;;;6.43;1.00;;;;;;;;;;5028951;28;20076;-71
2024/03/15 13:25:10;;;;;;;2.10;0.75;;;;;;;;;;5033050;28;20528;-71
2024/03/15 13:27:36;;;;;;;7.05;2.08;;;;;;;;;;5025817;28;20153;-70
2024/03/15 13:30:05;;;;;;;2.33;0.70;;;;;;;;;;5029115;28;20112;-70
2024/03/15 13:32:30;;;;;;;3.72;0.60;;;;;;;;;;5033173;28;20056;-71
2024/03/15 13:34:56;;;;;;;2.47;0.50;;;;;;;;;;5029981;28;20480;-71
2024/03/15 13:37:21;;;;;;;4.68;0.57;;;;;;;;;;5025090;28;20261;-71
2024/03/15 13:39:46;;;;;;;3.13;0.63;;;;;;;;;;5035916;28;20395;-71
2024/03/15 13:42:11;;;;;;;1.23;0.70;;;;;;;;;;5030654;28;20292;-70
2024/03/15 13:44:36;;;;;;;6.00;1.10;;;;;;;;;;5028473;28;20055;-71
2024/03/15 13:47:07;;;;;;;1.85;0.43;;;;;;;;;;5029856;28;20068;-70
2024/03/15 13:49:32;;;;;;;2.80;0.75;;;;;;;;;;5032894;28;20017;-70
2024/03/15 13:51:58;;;;;;;6.07;0.50;;;;;;;;;;5032373;28;20333;-70
2024/03/15 13:54:24;;;;;;;1.48;0.50;;;;;;;;;;5026152;28;20025;-70
2024/03/15 13:56:49;;;;;;;4.90;0.52;;;;;;;;;;5032817;28;20100;-70
2024/03/15 13:59:14;;;;;;;2.57;0.50;;;;;;;;;;5028474;28;20048;-70
2024/03/15 14:01:39;;;;;;;2.23;0.73;;;;;;;;;;5031989;28;20034;-70
2024/03/15 14:04:08;;;;;;;6.07;0.43;;;;;;;;;;5028790;28;20124;-71
2024/03/15 14:06:33;;;;;;;3.42;0.50;;;;;;;;;;5029055;28;20108;-70
2024/03/15 14:08:58;;;;;;;1.95;0.52;;;;;;;;;;5030455;28;20105;-70
2024/03/15 14:11:24;;;;;;;1.97;0.40;;;;;;;;;;5030420;28;20033;-72
2024/03/15 14:13:49;;;;;;;1.17;0.45;;;;;;;;;;5032643;28;20043;-71
2024/03/15 14:16:17;;;;;;;4.25;1.13;;;;;;;;;;5027154;28;20021;-70
2024/03/15 14:18:44;;;;;;;2.00;0.40;;;;;;;;;;5026134;28;20131;-70
2024/03/15 14:21:09;;;;;;;0.77;0.47;;;;;;;;;;5030993;28;20013;-71
2024/03/15 14:23:35;;;;;;;4.00;0.90;;;;;;;;;;5031259;28;20388;-71
2024/03/15 14:26:00;;;;;;;0.90;0.30;;;;;;;;;;5031214;28;20227;-71
2024/03/15 14:28:28;;;;;;;1.07;0.47;;;;;;;;;;5023036;28;20279;-71
2024/03/15 14:30:53;;;;;;;4.65;0.73;;;;;;;;;;5032172;28;20440;-68
2024/03/15 14:33:18;;;;;;;2.50;1.00;;;;;;;;;;5027185;28;20078;-70
2024/03/15 14:35:44;;;;;;;3.90;0.53;;;;;;;;;;5027693;28;20484;-71
2024/03/15 14:38:09;;;;;;;1.48;0.40;;;;;;;;;;5019607;28;20018;-71
2024/03/15 14:40:34;;;;;;;2.55;0.60;;;;;;;;;;5027099;28;20022;-71
2024/03/15 14:43:00;;;;;;;1.07;0.50;;;;;;;;;;5026313;28;20034;-71
2024/03/15 14:45:33;;;;;;;5.18;0.95;;;;;;;;;;5027293;28;20623;-71
2024/03/15 14:47:58;;;;;;;3.40;0.50;;;;;;;;;;5024431;28;20485;-71